createdAt,value
2023-04-01T00:00:53.768Z,99205.81
2023-04-01T00:03:20.108Z,99206.03
2023-04-01T00:05:46.438Z,99199.97
2023-04-01T00:08:12.614Z,99200.81
2023-04-01T00:10:38.748Z,99200.72
2023-04-01T00:13:04.948Z,99200.06
2023-04-01T00:15:31.436Z,99199.88
2023-04-01T00:17:57.860Z,99202.47
2023-04-01T00:20:24.043Z,99204.53
2023-04-01T00:22:50.162Z,99206.41
2023-04-01T00:25:16.333Z,99210.59
2023-04-01T00:27:42.468Z,99205.19
2023-04-01T00:30:08.660Z,99201.84
2023-04-01T00:32:34.892Z,99203.53
2023-04-01T00:35:01.105Z,99211.50
2023-04-01T00:37:27.266Z,99203.41
2023-04-01T00:39:53.416Z,99197.34
2023-04-01T00:42:19.626Z,99206.94
2023-04-01T00:44:45.777Z,99204.34
2023-04-01T00:47:11.992Z,99214.88
2023-04-01T00:49:38.185Z,99215.72
2023-04-01T00:52:04.363Z,99209.66
2023-04-01T00:54:30.507Z,99212.06
2023-04-01T00:56:56.696Z,99209.00
2023-04-01T00:59:23.970Z,99205.38
2023-04-01T01:01:50.134Z,99192.25
2023-04-01T01:04:16.352Z,99193.28
2023-04-01T01:06:42.667Z,99195.81
2023-04-01T01:09:08.815Z,99194.22
2023-04-01T01:11:42.554Z,99192.03
2023-04-01T01:14:09.515Z,99186.41
2023-04-01T01:16:35.754Z,99186.59
2023-04-01T01:19:01.943Z,99180.97
2023-04-01T01:21:28.100Z,99181.19
2023-04-01T01:23:54.268Z,99182.69
2023-04-01T01:26:20.441Z,99167.56
2023-04-01T01:28:46.588Z,99174.75
2023-04-01T01:31:12.873Z,99165.13
2023-04-01T01:33:39.046Z,99172.34
2023-04-01T01:36:05.245Z,99163.47
2023-04-01T01:38:33.508Z,99167.56
2023-04-01T01:40:59.675Z,99175.56
2023-04-01T01:43:25.819Z,99161.63
2023-04-01T01:45:52.062Z,99158.69
2023-04-01T01:48:18.327Z,99167.66
2023-04-01T01:50:44.455Z,99158.59
2023-04-01T01:53:10.621Z,99131.56
2023-04-01T01:55:36.831Z,99163.38
2023-04-01T01:58:03.015Z,99164.53
2023-04-01T02:00:29.199Z,99160.81
2023-04-01T02:02:55.432Z,99172.03
2023-04-01T02:05:21.617Z,99164.84
2023-04-01T02:07:47.780Z,99160.28
2023-04-01T02:10:13.915Z,99157.25
2023-04-01T02:12:40.086Z,99159.97
2023-04-01T02:15:06.274Z,99165.00
2023-04-01T02:17:32.551Z,99150.38
2023-04-01T02:19:58.879Z,99163.41
2023-04-01T02:22:25.034Z,99164.25
2023-04-01T02:24:51.246Z,99159.78
2023-04-01T02:27:17.420Z,99162.69
2023-04-01T02:29:43.549Z,99162.03
2023-04-01T02:32:09.714Z,99175.41
2023-04-01T02:34:35.890Z,99168.09
2023-04-01T02:37:02.079Z,99170.50
2023-04-01T02:39:28.282Z,99178.63
2023-04-01T02:41:54.464Z,99167.88
2023-04-01T02:44:20.651Z,99176.34
2023-04-01T02:46:46.870Z,99173.00
2023-04-01T02:49:13.143Z,99179.06
2023-04-01T02:51:39.295Z,99165.59
2023-04-01T02:54:05.433Z,99173.31
2023-04-01T02:56:31.552Z,99175.72
2023-04-01T02:58:57.764Z,99182.78
2023-04-01T03:01:23.988Z,99171.66
2023-04-01T03:03:50.184Z,99164.75
2023-04-01T03:06:16.387Z,99168.31
2023-04-01T03:08:42.540Z,99169.75
2023-04-01T03:11:08.746Z,99165.28
2023-04-01T03:13:34.938Z,99176.66
2023-04-01T03:16:01.092Z,99166.44
2023-04-01T03:18:27.269Z,99168.63
2023-04-01T03:20:53.421Z,99170.69
2023-04-01T03:23:19.600Z,99175.91
2023-04-01T03:25:45.761Z,99169.03
2023-04-01T03:28:11.881Z,99172.28
2023-04-01T03:30:38.102Z,99169.56
2023-04-01T03:33:04.354Z,99169.47
2023-04-01T03:35:30.793Z,99171.13
2023-04-01T03:37:57.110Z,99172.88
2023-04-01T03:40:23.251Z,99159.56
2023-04-01T03:42:49.489Z,99164.78
2023-04-01T03:45:15.699Z,99161.66
2023-04-01T03:47:42.010Z,99168.84
2023-04-01T03:50:08.217Z,99162.56
2023-04-01T03:52:34.372Z,99161.94
2023-04-01T03:55:00.532Z,99166.44
2023-04-01T03:57:26.748Z,99172.19
2023-04-01T03:59:52.978Z,99178.22
2023-04-01T04:02:19.199Z,99176.44
2023-04-01T04:04:45.411Z,99175.72
2023-04-01T04:07:11.583Z,99173.09
2023-04-01T04:09:37.775Z,99173.09
2023-04-01T04:12:03.957Z,99170.81
2023-04-01T04:14:30.131Z,99168.00
2023-04-01T04:16:56.285Z,99173.00
2023-04-01T04:19:22.459Z,99172.25
2023-04-01T04:21:48.685Z,99172.16
2023-04-01T04:24:15.175Z,99176.03
2023-04-01T04:26:41.337Z,99175.13
2023-04-01T04:29:07.594Z,99167.72
2023-04-01T04:31:33.914Z,99174.28
2023-04-01T04:34:00.112Z,99176.53
2023-04-01T04:36:26.248Z,99175.19
2023-04-01T04:38:52.384Z,99167.69
2023-04-01T04:41:18.557Z,99165.56
2023-04-01T04:43:44.725Z,99166.78
2023-04-01T04:46:10.845Z,99156.88
2023-04-01T04:48:36.972Z,99165.69
2023-04-01T04:51:03.168Z,99158.28
2023-04-01T04:53:29.374Z,99173.06
2023-04-01T04:55:55.516Z,99169.00
2023-04-01T04:58:21.679Z,99155.13
2023-04-01T05:00:47.819Z,99157.72
2023-04-01T05:03:14.093Z,99156.78
2023-04-01T05:05:40.470Z,99152.97
2023-04-01T05:08:06.611Z,99147.31
2023-04-01T05:10:32.804Z,99151.69
2023-04-01T05:12:58.946Z,99155.03
2023-04-01T05:15:25.155Z,99157.16
2023-04-01T05:17:51.364Z,99159.94
2023-04-01T05:20:17.579Z,99159.47
2023-04-01T05:22:43.776Z,99165.97
2023-04-01T05:25:09.937Z,99165.03
2023-04-01T05:27:36.076Z,99154.59
2023-04-01T05:30:02.232Z,99162.41
2023-04-01T05:32:28.459Z,99162.22
2023-04-01T05:34:54.650Z,99163.50
2023-04-01T05:37:20.891Z,99159.69
2023-04-01T05:39:47.032Z,99156.22
2023-04-01T05:42:13.142Z,99153.41
2023-04-01T05:44:39.275Z,99151.34
2023-04-01T05:47:05.401Z,99149.69
2023-04-01T05:49:31.592Z,99149.28
2023-04-01T05:51:57.719Z,99149.22
2023-04-01T05:54:23.877Z,99154.44
2023-04-01T05:56:50.108Z,99143.09
2023-04-01T05:59:16.316Z,99148.63
2023-04-01T06:01:42.514Z,99157.19
2023-04-01T06:04:08.804Z,99150.00
2023-04-01T06:06:35.068Z,99148.22
2023-04-01T06:09:01.272Z,99139.91
2023-04-01T06:11:27.443Z,99144.28
2023-04-01T06:13:53.592Z,99138.13
2023-04-01T06:16:19.833Z,99142.22
2023-04-01T06:18:46.004Z,99136.88
2023-04-01T06:21:12.186Z,99142.84
2023-04-01T06:23:38.381Z,99144.38
2023-04-01T06:26:04.588Z,99146.63
2023-04-01T06:28:30.817Z,99151.09
2023-04-01T06:30:57.016Z,99145.25
2023-04-01T06:33:23.158Z,99148.16
2023-04-01T06:35:49.414Z,99145.44
2023-04-01T06:38:15.760Z,99150.13
2023-04-01T06:40:49.394Z,99155.44
2023-04-01T06:43:15.614Z,99143.34
2023-04-01T06:45:41.763Z,99142.78
2023-04-01T06:48:07.970Z,99145.72
2023-04-01T06:50:34.260Z,99134.97
2023-04-01T06:53:00.451Z,99142.91
2023-04-01T06:55:26.653Z,99149.28
2023-04-01T06:57:52.797Z,99139.22
2023-04-01T07:00:18.988Z,99143.00
2023-04-01T07:02:45.219Z,99146.63
2023-04-01T07:05:11.398Z,99136.88
2023-04-01T07:07:37.591Z,99148.66
2023-04-01T07:10:03.777Z,99151.47
2023-04-01T07:12:29.949Z,99148.84
2023-04-01T07:14:56.115Z,99140.19
2023-04-01T07:17:22.372Z,99151.66
2023-04-01T07:19:48.596Z,99154.91
2023-04-01T07:22:14.793Z,99151.66
2023-04-01T07:24:40.998Z,99154.16
2023-04-01T07:27:07.145Z,99160.00
2023-04-01T07:29:33.312Z,99161.13
2023-04-01T07:31:59.724Z,99163.19
2023-04-01T07:34:25.925Z,99160.16
2023-04-01T07:36:52.070Z,99172.16
2023-04-01T07:39:18.271Z,99162.84
2023-04-01T07:41:44.423Z,99160.56
2023-04-01T07:44:10.634Z,99176.81
2023-04-01T07:46:36.865Z,99180.44
2023-04-01T07:49:03.043Z,99166.22
2023-04-01T07:51:29.197Z,99157.06
2023-04-01T07:53:55.326Z,99159.47
2023-04-01T07:56:21.763Z,99160.31
2023-04-01T07:58:47.926Z,99162.09
2023-04-01T08:01:14.071Z,99163.94
2023-04-01T08:03:40.331Z,99165.38
2023-04-01T08:06:06.674Z,99172.19
2023-04-01T08:08:32.819Z,99173.78
2023-04-01T08:10:59.030Z,99170.88
2023-04-01T08:13:25.152Z,99178.00
2023-04-01T08:15:51.296Z,99174.00
2023-04-01T08:18:17.646Z,99172.03
2023-04-01T08:20:43.866Z,99168.53
2023-04-01T08:23:10.027Z,99172.06
2023-04-01T08:25:36.218Z,99166.47
2023-04-01T08:28:02.404Z,99168.22
2023-04-01T08:30:28.600Z,99166.53
2023-04-01T08:32:54.795Z,99171.75
2023-04-01T08:35:20.979Z,99176.66
2023-04-01T08:37:47.172Z,99163.94
2023-04-01T08:40:13.381Z,99177.72
2023-04-01T08:42:39.566Z,99182.19
2023-04-01T08:45:05.722Z,99180.06
2023-04-01T08:47:31.926Z,99180.06
2023-04-01T08:49:58.224Z,99191.56
2023-04-01T08:52:24.423Z,99174.66
2023-04-01T08:54:50.597Z,99181.41
2023-04-01T08:57:16.849Z,99187.16
2023-04-01T08:59:43.046Z,99182.34
2023-04-01T09:02:09.248Z,99184.97
2023-04-01T09:04:35.478Z,99194.06
2023-04-01T09:07:01.643Z,99191.13
2023-04-01T09:09:27.754Z,99185.28
2023-04-01T09:11:53.914Z,99193.34
2023-04-01T09:14:20.094Z,99195.97
2023-04-01T09:16:46.283Z,99196.81
2023-04-01T09:19:12.467Z,99188.75
2023-04-01T09:21:38.656Z,99198.25
2023-04-01T09:24:04.857Z,99200.53
2023-04-01T09:26:30.996Z,99190.22
2023-04-01T09:28:57.191Z,99200.75
2023-04-01T09:31:23.432Z,99203.16
2023-04-01T09:33:49.640Z,99201.19
2023-04-01T09:36:15.884Z,99202.56
2023-04-01T09:38:42.023Z,99206.19
2023-04-01T09:41:08.213Z,99198.03
2023-04-01T09:43:34.348Z,99203.47
2023-04-01T09:46:00.519Z,99209.09
2023-04-01T09:48:26.786Z,99206.28
2023-04-01T09:50:52.937Z,99212.13
2023-04-01T09:53:19.125Z,99215.66
2023-04-01T09:55:45.262Z,99215.59
2023-04-01T09:58:11.404Z,99215.59
2023-04-01T10:00:37.543Z,99211.28
2023-04-01T10:03:03.714Z,99218.00
2023-04-01T10:05:29.987Z,99224.44
2023-04-01T10:07:56.238Z,99223.00
2023-04-01T10:10:22.456Z,99222.28
2023-04-01T10:12:48.640Z,99220.91
2023-04-01T10:15:14.858Z,99222.78
2023-04-01T10:17:41.109Z,99218.91
2023-04-01T10:20:07.260Z,99224.44
2023-04-01T10:22:33.500Z,99218.72
2023-04-01T10:24:59.673Z,99227.81
2023-04-01T10:27:25.842Z,99230.31
2023-04-01T10:29:52.013Z,99231.44
2023-04-01T10:32:18.160Z,99225.69
2023-04-01T10:34:44.321Z,99222.56
2023-04-01T10:37:10.435Z,99230.31
2023-04-01T10:39:36.700Z,99240.66
2023-04-01T10:42:03.152Z,99232.72
2023-04-01T10:44:29.343Z,99227.06
2023-04-01T10:46:55.535Z,99234.47
2023-04-01T10:49:21.725Z,99230.50
2023-04-01T10:51:47.908Z,99230.94
2023-04-01T10:54:14.086Z,99233.44
2023-04-01T10:56:40.310Z,99224.97
2023-04-01T10:59:06.487Z,99230.31
2023-04-01T11:01:32.715Z,99238.66
2023-04-01T11:04:01.223Z,99233.22
2023-04-01T11:06:27.375Z,99233.44
2023-04-01T11:08:53.552Z,99236.03
2023-04-01T11:11:19.738Z,99237.31
2023-04-01T11:13:45.951Z,99241.47
2023-04-01T11:16:12.187Z,99248.03
2023-04-01T11:18:38.374Z,99249.72
2023-04-01T11:21:04.535Z,99257.31
2023-04-01T11:23:30.671Z,99248.91
2023-04-01T11:25:56.821Z,99251.41
2023-04-01T11:28:23.086Z,99247.09
2023-04-01T11:30:49.207Z,99249.81
2023-04-01T11:33:15.357Z,99244.69
2023-04-01T11:35:41.532Z,99248.25
2023-04-01T11:38:07.720Z,99244.91
2023-04-01T11:40:33.883Z,99254.13
2023-04-01T11:43:00.209Z,99255.34
2023-04-01T11:45:26.347Z,99257.56
2023-04-01T11:47:52.512Z,99256.00
2023-04-01T11:50:18.720Z,99256.31
2023-04-01T11:52:45.875Z,99262.88
2023-04-01T11:55:12.059Z,99268.53
2023-04-01T11:57:38.191Z,99264.44
2023-04-01T12:00:04.386Z,99267.34
2023-04-01T12:02:30.655Z,99274.78
2023-04-01T12:04:56.854Z,99269.22
2023-04-01T12:07:23.037Z,99267.69
2023-04-01T12:09:49.209Z,99273.09
2023-04-01T12:12:15.338Z,99276.22
2023-04-01T12:14:41.546Z,99275.69
2023-04-01T12:17:07.715Z,99270.19
2023-04-01T12:19:33.877Z,99267.88
2023-04-01T12:22:00.033Z,99267.56
2023-04-01T12:24:26.181Z,99274.03
2023-04-01T12:26:52.415Z,99274.56
2023-04-01T12:29:20.971Z,99272.56
2023-04-01T12:31:47.217Z,99268.31
2023-04-01T12:34:13.420Z,99274.34
2023-04-01T12:36:39.570Z,99279.16
2023-04-01T12:39:05.731Z,99272.69
2023-04-01T12:41:31.969Z,99273.94
2023-04-01T12:43:58.220Z,99268.94
2023-04-01T12:46:24.458Z,99282.47
2023-04-01T12:48:51.592Z,99273.88
2023-04-01T12:51:19.173Z,99280.13
2023-04-01T12:53:45.348Z,99281.53
2023-04-01T12:56:11.543Z,99268.84
2023-04-01T12:58:37.749Z,99281.78
2023-04-01T13:01:03.951Z,99285.78
2023-04-01T13:03:30.131Z,99275.50
2023-04-01T13:05:56.388Z,99292.00
2023-04-01T13:08:22.589Z,99276.38
2023-04-01T13:10:48.720Z,99284.84
2023-04-01T13:13:14.924Z,99287.56
2023-04-01T13:15:41.141Z,99289.41
2023-04-01T13:18:07.339Z,99295.34
2023-04-01T13:20:33.828Z,99300.19
2023-04-01T13:23:00.225Z,99304.34
2023-04-01T13:25:26.347Z,99299.72
2023-04-01T13:27:52.532Z,99304.31
2023-04-01T13:30:18.721Z,99313.41
2023-04-01T13:32:44.978Z,99306.72
2023-04-01T13:35:11.148Z,99299.59
2023-04-01T13:37:37.353Z,99310.97
2023-04-01T13:40:03.511Z,99316.19
2023-04-01T13:42:29.644Z,99315.91
2023-04-01T13:44:55.790Z,99314.16
2023-04-01T13:47:22.054Z,99318.94
2023-04-01T13:49:48.279Z,99318.19
2023-04-01T13:52:14.478Z,99332.25
2023-04-01T13:54:40.696Z,99325.03
2023-04-01T13:57:06.904Z,99323.03
2023-04-01T13:59:33.127Z,99322.47
2023-04-01T14:01:59.311Z,99330.25
2023-04-01T14:04:25.560Z,99327.13
2023-04-01T14:06:51.692Z,99333.22
2023-04-01T14:09:17.893Z,99338.63
2023-04-01T14:11:44.216Z,99333.41
2023-04-01T14:14:10.435Z,99328.19
2023-04-01T14:16:36.672Z,99342.56
2023-04-01T14:19:02.821Z,99335.81
2023-04-01T14:21:28.980Z,99331.94
2023-04-01T14:23:55.128Z,99329.00
2023-04-01T14:26:21.321Z,99334.88
2023-04-01T14:28:47.574Z,99344.72
2023-04-01T14:31:13.780Z,99326.44
2023-04-01T14:33:39.959Z,99342.75
2023-04-01T14:36:06.136Z,99347.22
2023-04-01T14:38:32.343Z,99354.56
2023-04-01T14:40:58.531Z,99346.94
2023-04-01T14:43:24.714Z,99356.25
2023-04-01T14:45:51.087Z,99353.31
2023-04-01T14:48:17.333Z,99363.13
2023-04-01T14:50:43.502Z,99366.59
2023-04-01T14:53:09.661Z,99366.38
2023-04-01T14:55:36.047Z,99365.97
2023-04-01T14:58:02.400Z,99368.97
2023-04-01T15:00:28.583Z,99365.84
2023-04-01T15:02:54.747Z,99366.69
2023-04-01T15:05:20.985Z,99370.16
2023-04-01T15:07:47.214Z,99370.25
2023-04-01T15:10:13.462Z,99371.19
2023-04-01T15:12:39.733Z,99385.59
2023-04-01T15:15:05.880Z,99375.47
2023-04-01T15:17:32.125Z,99380.91
2023-04-01T15:19:58.320Z,99380.91
2023-04-01T15:22:24.554Z,99382.59
2023-04-01T15:24:50.743Z,99379.03
2023-04-01T15:27:16.917Z,99375.28
2023-04-01T15:29:43.138Z,99381.13
2023-04-01T15:32:09.357Z,99390.94
2023-04-01T15:34:35.560Z,99380.28
2023-04-01T15:37:01.769Z,99377.06
2023-04-01T15:39:27.966Z,99382.06
2023-04-01T15:41:54.175Z,99369.75
2023-04-01T15:44:20.421Z,99381.63
2023-04-01T15:46:46.681Z,99387.38
2023-04-01T15:49:12.911Z,99375.28
2023-04-01T15:51:39.099Z,99386.13
2023-04-01T15:54:05.280Z,99390.09
2023-04-01T15:56:31.499Z,99385.84
2023-04-01T15:58:57.736Z,99383.31
2023-04-01T16:01:23.933Z,99395.34
2023-04-01T16:03:50.154Z,99400.66
2023-04-01T16:06:16.395Z,99399.50
2023-04-01T16:08:42.641Z,99397.63
2023-04-01T16:11:08.852Z,99397.41
2023-04-01T16:13:35.027Z,99395.81
2023-04-01T16:16:01.242Z,99413.19
2023-04-01T16:18:27.432Z,99410.38
2023-04-01T16:20:53.631Z,99409.94
2023-04-01T16:23:19.759Z,99417.28
2023-04-01T16:25:45.940Z,99414.34
2023-04-01T16:28:12.121Z,99419.59
2023-04-01T16:30:38.268Z,99418.31
2023-04-01T16:33:04.543Z,99425.53
2023-04-01T16:35:30.856Z,99427.72
2023-04-01T16:37:57.064Z,99432.31
2023-04-01T16:40:23.190Z,99430.03
2023-04-01T16:42:49.389Z,99434.00
2023-04-01T16:45:15.626Z,99432.84
2023-04-01T16:47:42.031Z,99430.44
2023-04-01T16:50:08.231Z,99428.66
2023-04-01T16:52:34.479Z,99443.00
2023-04-01T16:55:00.667Z,99444.66
2023-04-01T16:57:26.894Z,99450.25
2023-04-01T16:59:53.218Z,99453.56
2023-04-01T17:02:19.408Z,99457.25
2023-04-01T17:04:45.622Z,99464.66
2023-04-01T17:07:11.874Z,99467.47
2023-04-01T17:09:38.043Z,99472.16
2023-04-01T17:12:04.228Z,99463.69
2023-04-01T17:14:30.464Z,99477.44
2023-04-01T17:16:56.667Z,99478.50
2023-04-01T17:19:22.873Z,99480.16
2023-04-01T17:21:49.075Z,99483.94
2023-04-01T17:24:15.233Z,99480.56
2023-04-01T17:26:41.392Z,99484.13
2023-04-01T17:29:07.613Z,99482.16
2023-04-01T17:31:33.787Z,99479.09
2023-04-01T17:33:59.939Z,99489.47
2023-04-01T17:36:26.178Z,99494.22
2023-04-01T17:38:52.368Z,99496.09
2023-04-01T17:41:18.516Z,99500.69
2023-04-01T17:43:44.712Z,99502.25
2023-04-01T17:46:10.953Z,99505.78
2023-04-01T17:48:37.163Z,99509.31
2023-04-01T17:51:03.353Z,99507.13
2023-04-01T17:53:29.526Z,99510.88
2023-04-01T17:55:55.654Z,99516.72
2023-04-01T17:58:21.858Z,99524.00
2023-04-01T18:00:53.982Z,99518.78
2023-04-01T18:03:20.819Z,99524.28
2023-04-01T18:05:48.959Z,99530.56
2023-04-01T18:08:15.231Z,99528.97
2023-04-01T18:10:41.572Z,99536.03
2023-04-01T18:13:07.706Z,99538.75
2023-04-01T18:15:33.887Z,99544.06
2023-04-01T18:18:00.174Z,99542.66
2023-04-01T18:20:26.394Z,99553.03
2023-04-01T18:22:52.589Z,99558.41
2023-04-01T18:25:18.815Z,99557.59
2023-04-01T18:27:45.000Z,99559.75
2023-04-01T18:30:11.225Z,99573.50
2023-04-01T18:32:37.389Z,99573.91
2023-04-01T18:35:03.605Z,99573.59
2023-04-01T18:37:29.913Z,99581.72
2023-04-01T18:39:56.124Z,99580.50
2023-04-01T18:42:22.297Z,99589.03
2023-04-01T18:44:48.497Z,99597.69
2023-04-01T18:47:14.790Z,99600.81
2023-04-01T18:49:41.061Z,99615.97
2023-04-01T18:52:07.285Z,99618.84
2023-04-01T18:54:33.556Z,99620.94
2023-04-01T18:56:59.706Z,99620.66
2023-04-01T18:59:25.904Z,99625.28
2023-04-01T19:01:52.072Z,99628.13
2023-04-01T19:04:18.334Z,99629.41
2023-04-01T19:06:47.500Z,99626.13
2023-04-01T19:09:13.786Z,99639.91
2023-04-01T19:11:39.938Z,99632.09
2023-04-01T19:14:06.200Z,99640.81
2023-04-01T19:16:32.497Z,99635.34
2023-04-01T19:18:58.694Z,99645.63
2023-04-01T19:21:24.897Z,99644.78
2023-04-01T19:23:51.108Z,99648.72
2023-04-01T19:26:17.298Z,99642.66
2023-04-01T19:28:43.555Z,99645.44
2023-04-01T19:31:09.755Z,99635.69
2023-04-01T19:33:36.016Z,99637.34
2023-04-01T19:36:02.205Z,99638.81
2023-04-01T19:38:28.596Z,99645.84
2023-04-01T19:40:55.926Z,99643.78
2023-04-01T19:43:22.154Z,99650.66
2023-04-01T19:45:49.390Z,99657.38
2023-04-01T19:48:15.567Z,99656.44
2023-04-01T19:50:41.701Z,99654.19
2023-04-01T19:53:07.993Z,99662.41
2023-04-01T19:55:36.628Z,99667.88
2023-04-01T19:58:28.368Z,99671.06
2023-04-01T20:00:57.095Z,99668.19
2023-04-01T20:03:24.018Z,99673.59
2023-04-01T20:05:50.305Z,99681.22
2023-04-01T20:08:16.581Z,99680.88
2023-04-01T20:10:42.810Z,99681.72
2023-04-01T20:13:08.970Z,99681.06
2023-04-01T20:15:35.280Z,99684.75
2023-04-01T20:18:01.840Z,99683.75
2023-04-01T20:20:28.108Z,99689.22
2023-04-01T20:22:54.320Z,99691.81
2023-04-01T20:25:20.737Z,99692.03
2023-04-01T20:27:46.920Z,99695.00
2023-04-01T20:30:13.129Z,99687.38
2023-04-01T20:32:39.359Z,99688.22
2023-04-01T20:35:05.721Z,99688.34
2023-04-01T20:37:31.939Z,99692.91
2023-04-01T20:39:58.146Z,99691.31
2023-04-01T20:42:24.289Z,99704.56
2023-04-01T20:44:50.485Z,99708.44
2023-04-01T20:47:16.632Z,99714.63
2023-04-01T20:49:42.832Z,99719.81
2023-04-01T20:52:10.558Z,99722.50
2023-04-01T20:54:36.742Z,99721.78
2023-04-01T20:57:03.014Z,99723.28
2023-04-01T20:59:29.276Z,99720.59
2023-04-01T21:01:55.502Z,99722.03
2023-04-01T21:04:21.753Z,99726.09
2023-04-01T21:06:48.167Z,99717.34
2023-04-01T21:09:14.386Z,99727.34
2023-04-01T21:11:40.583Z,99726.84
2023-04-01T21:14:06.805Z,99731.38
2023-04-01T21:16:33.159Z,99735.91
2023-04-01T21:18:59.532Z,99738.00
2023-04-01T21:21:25.727Z,99734.13
2023-04-01T21:23:51.927Z,99741.94
2023-04-01T21:26:18.053Z,99745.41
2023-04-01T21:28:44.224Z,99746.66
2023-04-01T21:31:10.381Z,99748.31
2023-04-01T21:33:36.650Z,99748.06
2023-04-01T21:36:02.895Z,99757.03
2023-04-01T21:38:29.457Z,99749.47
2023-04-01T21:40:55.592Z,99757.03
2023-04-01T21:43:21.761Z,99758.72
2023-04-01T21:45:47.996Z,99757.34
2023-04-01T21:48:14.157Z,99767.00
2023-04-01T21:50:40.385Z,99771.22
2023-04-01T21:53:06.789Z,99773.13
2023-04-01T21:55:33.189Z,99772.03
2023-04-01T21:57:59.580Z,99778.09
2023-04-01T22:00:25.759Z,99787.56
2023-04-01T22:02:51.940Z,99783.97
2023-04-01T22:05:18.158Z,99782.88
2023-04-01T22:07:44.334Z,99778.59
2023-04-01T22:10:11.661Z,99774.16
2023-04-01T22:12:37.850Z,99786.25
2023-04-01T22:15:04.049Z,99795.97
2023-04-01T22:17:30.241Z,99789.09
2023-04-01T22:19:56.391Z,99790.47
2023-04-01T22:22:22.627Z,99788.09
2023-04-01T22:24:48.792Z,99800.38
2023-04-01T22:27:14.966Z,99793.16
2023-04-01T22:29:42.884Z,99802.72
2023-04-01T22:32:09.339Z,99794.31
2023-04-01T22:34:35.518Z,99801.69
2023-04-01T22:37:01.732Z,99804.56
2023-04-01T22:39:27.895Z,99802.56
2023-04-01T22:41:54.054Z,99814.56
2023-04-01T22:44:20.231Z,99808.00
2023-04-01T22:46:46.367Z,99810.06
2023-04-01T22:49:12.550Z,99817.03
2023-04-01T22:51:38.735Z,99812.72
2023-04-01T22:54:04.958Z,99812.13
2023-04-01T22:56:31.113Z,99816.25
2023-04-01T22:58:57.312Z,99824.91
2023-04-01T23:01:23.503Z,99820.31
2023-04-01T23:03:49.717Z,99824.75
2023-04-01T23:06:15.846Z,99823.59
2023-04-01T23:08:41.985Z,99822.06
2023-04-01T23:11:08.179Z,99826.31
2023-04-01T23:13:34.295Z,99830.81
2023-04-01T23:16:00.722Z,99832.56
2023-04-01T23:18:26.928Z,99839.84
2023-04-01T23:21:11.442Z,99844.28
2023-04-01T23:23:37.666Z,99847.03
2023-04-01T23:26:03.827Z,99848.97
2023-04-01T23:28:30.010Z,99860.34
2023-04-01T23:30:56.170Z,99852.25
2023-04-01T23:33:22.433Z,99856.41
2023-04-01T23:35:48.655Z,99860.84
2023-04-01T23:38:14.807Z,99860.31
2023-04-01T23:40:41.013Z,99869.47
2023-04-01T23:43:07.247Z,99864.97
2023-04-01T23:45:33.605Z,99869.56
2023-04-01T23:47:59.966Z,99875.06
2023-04-01T23:50:26.167Z,99872.59
2023-04-01T23:52:52.381Z,99878.25
2023-04-01T23:55:18.568Z,99879.13
2023-04-01T23:57:44.746Z,99879.84
